AFO Airport (Afton Muni) Information

FAA: AFO - ICAO: KAFO

AFO Airport Location

State Wyoming
County Lincoln
City Afton
AFO Airport is 1 mile southwest of Afton, WY.
Latitude 42-42-31.6000N
Longitude 110-56-31.8000W
Elevation 6,220ft

KAFO Airport METARs

METAR KAFO 281415Z AUTO 00000KT 10SM BKN036 OVC048 00/00 A3041 RMK AO2
Altimeter 30.41"
Temperature 0.0°C (32.0°F)
Wind 0° at 0KT
Clouds broken at 3,600ft overcast at 4,800ft
Visibility 10.0mi
Time observed: 2021-10-28T14:15:00Z

AFO Airport Details

Status Operational
Activation July 1942
Ownership Public
Usage Public
Chart SALT LAKE CITY
ATC on-site No
Beacon schedule sunset-sunrise
Beacon color clear green

AFO Airport Contacts

Owner TOWN OF AFTON
Owner address BOX 1181, AFTON, WY 83110
Owner phone (307) 885-9831
Manager JIM SINGER
Manager address 2661 AVIATION RD, WAUKESHA, WI 53188
Manager phone 414-778-5427

AFO Airport (Afton Muni) Radio Frequencies

AFO (Airport) Radio Frequencies

UNICOM 122.8
Common traffic advisory frequency (CTAF) 122.8